sensor_id;sensor_type;location;lat;lon;timestamp;P1;durP1;ratioP1;P2;durP2;ratioP2
35506;SDS011;36461;52.018;21.036;2022-10-17T00:03:20;17.17;;;12.13;;
35506;SDS011;36461;52.018;21.036;2022-10-17T00:08:14;15.55;;;12.30;;
35506;SDS011;36461;52.018;21.036;2022-10-17T00:10:43;17.95;;;11.93;;
35506;SDS011;36461;52.018;21.036;2022-10-17T00:13:13;16.37;;;12.58;;
35506;SDS011;36461;52.018;21.036;2022-10-17T00:15:42;15.32;;;11.88;;
35506;SDS011;36461;52.018;21.036;2022-10-17T00:18:10;17.48;;;12.15;;
35506;SDS011;36461;52.018;21.036;2022-10-17T00:20:37;18.27;;;12.85;;
35506;SDS011;36461;52.018;21.036;2022-10-17T00:23:04;18.60;;;13.45;;
35506;SDS011;36461;52.018;21.036;2022-10-17T00:25:32;17.30;;;12.45;;
35506;SDS011;36461;52.018;21.036;2022-10-17T00:27:59;18.82;;;13.25;;
35506;SDS011;36461;52.018;21.036;2022-10-17T00:30:25;18.48;;;13.00;;
35506;SDS011;36461;52.018;21.036;2022-10-17T00:32:52;17.17;;;13.00;;
35506;SDS011;36461;52.018;21.036;2022-10-17T00:35:19;21.00;;;13.13;;
35506;SDS011;36461;52.018;21.036;2022-10-17T00:37:48;23.00;;;14.35;;
35506;SDS011;36461;52.018;21.036;2022-10-17T00:40:16;20.90;;;13.72;;
35506;SDS011;36461;52.018;21.036;2022-10-17T00:42:45;24.52;;;15.05;;
35506;SDS011;36461;52.018;21.036;2022-10-17T00:47:59;19.45;;;15.48;;
35506;SDS011;36461;52.018;21.036;2022-10-17T00:50:30;27.35;;;14.60;;
35506;SDS011;36461;52.018;21.036;2022-10-17T00:53:00;19.17;;;14.40;;
35506;SDS011;36461;52.018;21.036;2022-10-17T00:55:33;20.05;;;14.55;;
35506;SDS011;36461;52.018;21.036;2022-10-17T00:58:00;19.45;;;14.47;;
35506;SDS011;36461;52.018;21.036;2022-10-17T01:00:29;19.25;;;13.48;;
35506;SDS011;36461;52.018;21.036;2022-10-17T01:02:57;23.80;;;13.75;;
35506;SDS011;36461;52.018;21.036;2022-10-17T01:05:24;20.35;;;13.60;;
35506;SDS011;36461;52.018;21.036;2022-10-17T01:07:52;17.20;;;13.65;;
35506;SDS011;36461;52.018;21.036;2022-10-17T01:10:20;20.37;;;13.43;;
35506;SDS011;36461;52.018;21.036;2022-10-17T01:15:45;17.70;;;12.03;;
35506;SDS011;36461;52.018;21.036;2022-10-17T01:33:11;17.67;;;13.65;;
35506;SDS011;36461;52.018;21.036;2022-10-17T01:39:00;15.75;;;12.53;;
35506;SDS011;36461;52.018;21.036;2022-10-17T01:47:53;19.98;;;13.28;;
35506;SDS011;36461;52.018;21.036;2022-10-17T01:50:30;25.50;;;13.40;;
35506;SDS011;36461;52.018;21.036;2022-10-17T01:53:01;18.85;;;13.18;;
35506;SDS011;36461;52.018;21.036;2022-10-17T01:55:35;18.17;;;13.03;;
35506;SDS011;36461;52.018;21.036;2022-10-17T02:00:57;16.23;;;13.38;;
35506;SDS011;36461;52.018;21.036;2022-10-17T02:03:31;18.95;;;13.53;;
35506;SDS011;36461;52.018;21.036;2022-10-17T02:06:00;18.48;;;14.20;;
35506;SDS011;36461;52.018;21.036;2022-10-17T02:08:38;21.02;;;14.70;;
35506;SDS011;36461;52.018;21.036;2022-10-17T02:11:24;24.20;;;15.10;;
35506;SDS011;36461;52.018;21.036;2022-10-17T02:22:34;22.75;;;16.40;;
35506;SDS011;36461;52.018;21.036;2022-10-17T02:25:21;21.93;;;15.10;;
35506;SDS011;36461;52.018;21.036;2022-10-17T02:33:40;21.12;;;14.73;;
35506;SDS011;36461;52.018;21.036;2022-10-17T02:36:19;22.48;;;14.78;;
35506;SDS011;36461;52.018;21.036;2022-10-17T02:38:50;22.95;;;14.05;;
35506;SDS011;36461;52.018;21.036;2022-10-17T02:41:19;18.82;;;14.60;;
35506;SDS011;36461;52.018;21.036;2022-10-17T02:43:50;19.87;;;14.47;;
35506;SDS011;36461;52.018;21.036;2022-10-17T02:46:19;19.77;;;13.95;;
35506;SDS011;36461;52.018;21.036;2022-10-17T02:48:56;18.98;;;13.78;;
35506;SDS011;36461;52.018;21.036;2022-10-17T02:56:56;18.45;;;14.58;;
35506;SDS011;36461;52.018;21.036;2022-10-17T02:59:56;19.37;;;14.43;;
35506;SDS011;36461;52.018;21.036;2022-10-17T03:02:26;20.70;;;14.53;;
35506;SDS011;36461;52.018;21.036;2022-10-17T03:04:53;24.65;;;15.60;;
35506;SDS011;36461;52.018;21.036;2022-10-17T03:07:21;19.95;;;13.62;;
35506;SDS011;36461;52.018;21.036;2022-10-17T03:09:48;17.07;;;13.15;;
35506;SDS011;36461;52.018;21.036;2022-10-17T03:12:15;20.27;;;14.33;;
35506;SDS011;36461;52.018;21.036;2022-10-17T03:14:41;18.23;;;14.03;;
35506;SDS011;36461;52.018;21.036;2022-10-17T03:17:08;18.40;;;14.33;;
35506;SDS011;36461;52.018;21.036;2022-10-17T03:19:34;21.97;;;14.07;;
35506;SDS011;36461;52.018;21.036;2022-10-17T03:22:01;20.70;;;13.50;;
35506;SDS011;36461;52.018;21.036;2022-10-17T03:24:29;17.42;;;13.28;;
35506;SDS011;36461;52.018;21.036;2022-10-17T03:26:55;19.95;;;13.95;;
35506;SDS011;36461;52.018;21.036;2022-10-17T03:29:23;20.88;;;13.72;;
35506;SDS011;36461;52.018;21.036;2022-10-17T03:31:53;24.43;;;15.60;;
35506;SDS011;36461;52.018;21.036;2022-10-17T03:34:20;20.20;;;14.83;;
35506;SDS011;36461;52.018;21.036;2022-10-17T03:36:47;18.15;;;14.05;;
35506;SDS011;36461;52.018;21.036;2022-10-17T03:39:14;18.70;;;13.40;;
35506;SDS011;36461;52.018;21.036;2022-10-17T03:44:08;18.45;;;12.63;;
35506;SDS011;36461;52.018;21.036;2022-10-17T03:46:35;21.37;;;13.28;;
35506;SDS011;36461;52.018;21.036;2022-10-17T03:49:03;19.42;;;13.48;;
35506;SDS011;36461;52.018;21.036;2022-10-17T03:51:33;18.62;;;13.48;;
35506;SDS011;36461;52.018;21.036;2022-10-17T03:54:02;18.70;;;13.78;;
35506;SDS011;36461;52.018;21.036;2022-10-17T03:56:29;23.05;;;14.35;;
35506;SDS011;36461;52.018;21.036;2022-10-17T03:58:58;18.35;;;13.25;;
35506;SDS011;36461;52.018;21.036;2022-10-17T04:01:26;17.67;;;13.15;;
35506;SDS011;36461;52.018;21.036;2022-10-17T04:03:54;20.17;;;12.75;;
35506;SDS011;36461;52.018;21.036;2022-10-17T04:06:23;17.92;;;12.88;;
35506;SDS011;36461;52.018;21.036;2022-10-17T04:08:50;16.65;;;13.22;;
35506;SDS011;36461;52.018;21.036;2022-10-17T04:11:24;28.62;;;15.50;;
35506;SDS011;36461;52.018;21.036;2022-10-17T04:13:54;22.67;;;15.05;;
35506;SDS011;36461;52.018;21.036;2022-10-17T04:16:24;22.62;;;15.03;;
35506;SDS011;36461;52.018;21.036;2022-10-17T04:18:58;19.57;;;14.38;;
35506;SDS011;36461;52.018;21.036;2022-10-17T04:21:28;20.27;;;13.38;;
35506;SDS011;36461;52.018;21.036;2022-10-17T04:23:57;20.10;;;14.40;;
35506;SDS011;36461;52.018;21.036;2022-10-17T04:26:39;20.75;;;13.70;;
35506;SDS011;36461;52.018;21.036;2022-10-17T04:29:06;23.05;;;14.43;;
35506;SDS011;36461;52.018;21.036;2022-10-17T04:31:32;20.60;;;14.60;;
35506;SDS011;36461;52.018;21.036;2022-10-17T04:34:16;18.23;;;14.18;;
35506;SDS011;36461;52.018;21.036;2022-10-17T04:39:09;23.00;;;14.43;;
35506;SDS011;36461;52.018;21.036;2022-10-17T04:41:36;20.00;;;15.78;;
35506;SDS011;36461;52.018;21.036;2022-10-17T04:44:03;19.35;;;15.10;;
35506;SDS011;36461;52.018;21.036;2022-10-17T04:46:32;18.60;;;14.33;;
35506;SDS011;36461;52.018;21.036;2022-10-17T04:48:59;18.98;;;14.53;;
35506;SDS011;36461;52.018;21.036;2022-10-17T04:51:27;20.10;;;15.08;;
35506;SDS011;36461;52.018;21.036;2022-10-17T04:53:56;27.62;;;15.90;;
35506;SDS011;36461;52.018;21.036;2022-10-17T04:56:23;21.05;;;15.55;;
35506;SDS011;36461;52.018;21.036;2022-10-17T04:58:50;18.85;;;15.20;;
35506;SDS011;36461;52.018;21.036;2022-10-17T05:01:21;21.75;;;16.02;;
35506;SDS011;36461;52.018;21.036;2022-10-17T05:03:51;22.75;;;15.38;;
35506;SDS011;36461;52.018;21.036;2022-10-17T05:06:20;21.10;;;15.83;;
35506;SDS011;36461;52.018;21.036;2022-10-17T05:08:57;25.37;;;15.98;;
35506;SDS011;36461;52.018;21.036;2022-10-17T05:11:26;20.20;;;15.48;;
35506;SDS011;36461;52.018;21.036;2022-10-17T05:13:55;21.50;;;14.80;;
35506;SDS011;36461;52.018;21.036;2022-10-17T05:16:25;19.05;;;15.55;;
35506;SDS011;36461;52.018;21.036;2022-10-17T05:18:54;20.82;;;15.53;;
35506;SDS011;36461;52.018;21.036;2022-10-17T05:21:25;22.65;;;16.07;;
35506;SDS011;36461;52.018;21.036;2022-10-17T05:23:53;21.70;;;15.40;;
35506;SDS011;36461;52.018;21.036;2022-10-17T05:26:21;19.17;;;14.65;;
35506;SDS011;36461;52.018;21.036;2022-10-17T05:28:48;19.60;;;15.30;;
35506;SDS011;36461;52.018;21.036;2022-10-17T05:31:18;20.80;;;15.38;;
35506;SDS011;36461;52.018;21.036;2022-10-17T05:36:11;20.95;;;14.63;;
35506;SDS011;36461;52.018;21.036;2022-10-17T05:38:40;25.25;;;15.45;;
35506;SDS011;36461;52.018;21.036;2022-10-17T05:41:08;19.85;;;14.98;;
35506;SDS011;36461;52.018;21.036;2022-10-17T05:43:36;19.87;;;15.45;;
35506;SDS011;36461;52.018;21.036;2022-10-17T05:46:04;22.65;;;16.73;;
35506;SDS011;36461;52.018;21.036;2022-10-17T05:48:32;21.82;;;15.48;;
35506;SDS011;36461;52.018;21.036;2022-10-17T05:51:02;22.70;;;16.10;;
35506;SDS011;36461;52.018;21.036;2022-10-17T05:53:34;22.05;;;15.48;;
35506;SDS011;36461;52.018;21.036;2022-10-17T05:56:06;20.95;;;15.35;;
35506;SDS011;36461;52.018;21.036;2022-10-17T05:58:38;23.22;;;15.90;;
35506;SDS011;36461;52.018;21.036;2022-10-17T06:01:12;21.27;;;15.05;;
35506;SDS011;36461;52.018;21.036;2022-10-17T06:03:39;25.23;;;14.83;;
35506;SDS011;36461;52.018;21.036;2022-10-17T06:06:07;20.15;;;15.32;;
35506;SDS011;36461;52.018;21.036;2022-10-17T06:08:38;26.75;;;14.45;;
35506;SDS011;36461;52.018;21.036;2022-10-17T06:11:07;20.20;;;16.10;;
35506;SDS011;36461;52.018;21.036;2022-10-17T06:13:35;26.85;;;16.50;;
35506;SDS011;36461;52.018;21.036;2022-10-17T06:16:04;26.37;;;17.20;;
35506;SDS011;36461;52.018;21.036;2022-10-17T06:18:32;25.92;;;16.80;;
35506;SDS011;36461;52.018;21.036;2022-10-17T06:21:08;28.92;;;17.98;;
35506;SDS011;36461;52.018;21.036;2022-10-17T06:23:33;24.50;;;16.62;;
35506;SDS011;36461;52.018;21.036;2022-10-17T06:26:02;20.80;;;16.52;;
35506;SDS011;36461;52.018;21.036;2022-10-17T06:28:31;28.30;;;16.95;;
35506;SDS011;36461;52.018;21.036;2022-10-17T06:30:58;22.98;;;15.95;;
35506;SDS011;36461;52.018;21.036;2022-10-17T06:33:34;25.48;;;17.12;;
35506;SDS011;36461;52.018;21.036;2022-10-17T06:36:02;25.95;;;16.05;;
35506;SDS011;36461;52.018;21.036;2022-10-17T06:38:34;22.37;;;16.02;;
35506;SDS011;36461;52.018;21.036;2022-10-17T06:41:06;24.75;;;16.75;;
35506;SDS011;36461;52.018;21.036;2022-10-17T06:46:33;31.30;;;17.92;;
35506;SDS011;36461;52.018;21.036;2022-10-17T06:49:02;26.50;;;18.42;;
35506;SDS011;36461;52.018;21.036;2022-10-17T06:51:41;26.25;;;18.00;;
35506;SDS011;36461;52.018;21.036;2022-10-17T06:54:09;34.43;;;18.40;;
35506;SDS011;36461;52.018;21.036;2022-10-17T06:59:19;28.65;;;18.05;;
35506;SDS011;36461;52.018;21.036;2022-10-17T07:01:48;26.07;;;18.02;;
35506;SDS011;36461;52.018;21.036;2022-10-17T07:04:15;28.77;;;17.57;;
35506;SDS011;36461;52.018;21.036;2022-10-17T07:09:14;25.30;;;17.32;;
35506;SDS011;36461;52.018;21.036;2022-10-17T07:11:42;24.12;;;17.30;;
35506;SDS011;36461;52.018;21.036;2022-10-17T07:14:09;26.07;;;18.05;;
35506;SDS011;36461;52.018;21.036;2022-10-17T07:16:36;22.20;;;17.17;;
35506;SDS011;36461;52.018;21.036;2022-10-17T07:19:08;22.65;;;17.20;;
35506;SDS011;36461;52.018;21.036;2022-10-17T07:21:36;24.18;;;16.12;;
35506;SDS011;36461;52.018;21.036;2022-10-17T07:24:03;24.05;;;16.65;;
35506;SDS011;36461;52.018;21.036;2022-10-17T07:26:32;26.80;;;17.55;;
35506;SDS011;36461;52.018;21.036;2022-10-17T07:29:00;21.95;;;16.67;;
35506;SDS011;36461;52.018;21.036;2022-10-17T07:31:31;22.70;;;16.55;;
35506;SDS011;36461;52.018;21.036;2022-10-17T07:33:59;22.27;;;17.15;;
35506;SDS011;36461;52.018;21.036;2022-10-17T07:36:27;22.20;;;15.72;;
35506;SDS011;36461;52.018;21.036;2022-10-17T07:38:55;20.15;;;15.60;;
35506;SDS011;36461;52.018;21.036;2022-10-17T07:41:21;27.32;;;15.83;;
35506;SDS011;36461;52.018;21.036;2022-10-17T07:46:16;22.17;;;14.53;;
35506;SDS011;36461;52.018;21.036;2022-10-17T07:48:44;19.32;;;15.78;;
35506;SDS011;36461;52.018;21.036;2022-10-17T07:51:11;18.73;;;15.68;;
35506;SDS011;36461;52.018;21.036;2022-10-17T07:53:38;19.75;;;15.58;;
35506;SDS011;36461;52.018;21.036;2022-10-17T07:56:09;22.93;;;14.95;;
35506;SDS011;36461;52.018;21.036;2022-10-17T07:58:35;22.65;;;15.63;;
35506;SDS011;36461;52.018;21.036;2022-10-17T08:01:03;19.82;;;15.08;;
35506;SDS011;36461;52.018;21.036;2022-10-17T08:03:33;18.90;;;14.90;;
35506;SDS011;36461;52.018;21.036;2022-10-17T08:06:00;22.85;;;16.70;;
35506;SDS011;36461;52.018;21.036;2022-10-17T08:08:28;17.75;;;14.87;;
35506;SDS011;36461;52.018;21.036;2022-10-17T08:10:59;19.82;;;14.75;;
35506;SDS011;36461;52.018;21.036;2022-10-17T08:13:30;18.92;;;14.98;;
35506;SDS011;36461;52.018;21.036;2022-10-17T08:15:58;17.10;;;14.03;;
35506;SDS011;36461;52.018;21.036;2022-10-17T08:18:26;18.98;;;15.25;;
35506;SDS011;36461;52.018;21.036;2022-10-17T08:20:54;20.62;;;14.87;;
35506;SDS011;36461;52.018;21.036;2022-10-17T08:23:26;18.98;;;14.78;;
35506;SDS011;36461;52.018;21.036;2022-10-17T08:25:54;18.90;;;15.10;;
35506;SDS011;36461;52.018;21.036;2022-10-17T08:28:25;20.57;;;15.95;;
35506;SDS011;36461;52.018;21.036;2022-10-17T08:31:00;20.40;;;15.18;;
35506;SDS011;36461;52.018;21.036;2022-10-17T08:33:29;19.60;;;14.78;;
35506;SDS011;36461;52.018;21.036;2022-10-17T08:35:58;17.37;;;14.03;;
35506;SDS011;36461;52.018;21.036;2022-10-17T08:38:29;18.25;;;13.80;;
35506;SDS011;36461;52.018;21.036;2022-10-17T08:40:59;17.92;;;14.30;;
35506;SDS011;36461;52.018;21.036;2022-10-17T08:46:12;18.48;;;13.75;;
35506;SDS011;36461;52.018;21.036;2022-10-17T08:48:41;18.30;;;14.05;;
35506;SDS011;36461;52.018;21.036;2022-10-17T08:51:27;18.60;;;14.50;;
35506;SDS011;36461;52.018;21.036;2022-10-17T08:54:14;17.12;;;14.87;;
35506;SDS011;36461;52.018;21.036;2022-10-17T08:56:47;17.50;;;13.95;;
35506;SDS011;36461;52.018;21.036;2022-10-17T08:59:36;22.90;;;14.43;;
35506;SDS011;36461;52.018;21.036;2022-10-17T09:04:44;18.35;;;14.23;;
35506;SDS011;36461;52.018;21.036;2022-10-17T09:07:39;18.48;;;14.25;;
35506;SDS011;36461;52.018;21.036;2022-10-17T09:10:27;17.15;;;14.10;;
35506;SDS011;36461;52.018;21.036;2022-10-17T09:13:39;17.48;;;13.88;;
35506;SDS011;36461;52.018;21.036;2022-10-17T09:15:33;17.50;;;14.50;;
35506;SDS011;36461;52.018;21.036;2022-10-17T09:18:18;16.70;;;14.30;;
35506;SDS011;36461;52.018;21.036;2022-10-17T09:23:35;16.75;;;13.50;;
35506;SDS011;36461;52.018;21.036;2022-10-17T09:26:00;19.65;;;14.13;;
35506;SDS011;36461;52.018;21.036;2022-10-17T09:28:31;16.42;;;13.83;;
35506;SDS011;36461;52.018;21.036;2022-10-17T09:31:06;17.70;;;13.53;;
35506;SDS011;36461;52.018;21.036;2022-10-17T09:33:53;14.28;;;12.73;;
35506;SDS011;36461;52.018;21.036;2022-10-17T09:36:23;16.15;;;14.07;;
35506;SDS011;36461;52.018;21.036;2022-10-17T09:39:13;19.02;;;14.15;;
35506;SDS011;36461;52.018;21.036;2022-10-17T09:42:03;17.45;;;13.55;;
35506;SDS011;36461;52.018;21.036;2022-10-17T09:50:13;16.80;;;13.93;;
35506;SDS011;36461;52.018;21.036;2022-10-17T09:52:43;17.30;;;13.58;;
35506;SDS011;36461;52.018;21.036;2022-10-17T09:55:16;18.80;;;14.95;;
35506;SDS011;36461;52.018;21.036;2022-10-17T09:58:06;17.02;;;14.55;;
35506;SDS011;36461;52.018;21.036;2022-10-17T10:00:39;15.65;;;13.62;;
35506;SDS011;36461;52.018;21.036;2022-10-17T10:03:16;14.50;;;13.00;;
35506;SDS011;36461;52.018;21.036;2022-10-17T10:06:02;16.30;;;13.48;;
35506;SDS011;36461;52.018;21.036;2022-10-17T10:08:36;15.30;;;13.50;;
35506;SDS011;36461;52.018;21.036;2022-10-17T10:11:25;20.68;;;13.38;;
35506;SDS011;36461;52.018;21.036;2022-10-17T10:16:57;17.82;;;14.45;;
35506;SDS011;36461;52.018;21.036;2022-10-17T10:19:31;17.77;;;13.78;;
35506;SDS011;36461;52.018;21.036;2022-10-17T10:24:41;17.35;;;14.53;;
35506;SDS011;36461;52.018;21.036;2022-10-17T10:27:11;20.12;;;15.00;;
35506;SDS011;36461;52.018;21.036;2022-10-17T10:29:41;18.73;;;14.87;;
35506;SDS011;36461;52.018;21.036;2022-10-17T10:32:20;17.90;;;15.08;;
35506;SDS011;36461;52.018;21.036;2022-10-17T10:37:53;15.90;;;13.43;;
35506;SDS011;36461;52.018;21.036;2022-10-17T10:40:37;17.05;;;13.78;;
35506;SDS011;36461;52.018;21.036;2022-10-17T10:43:32;17.00;;;13.53;;
35506;SDS011;36461;52.018;21.036;2022-10-17T10:46:01;16.23;;;14.33;;
35506;SDS011;36461;52.018;21.036;2022-10-17T10:51:29;16.70;;;14.30;;
35506;SDS011;36461;52.018;21.036;2022-10-17T10:56:50;16.62;;;14.83;;
35506;SDS011;36461;52.018;21.036;2022-10-17T10:59:29;18.02;;;14.75;;
35506;SDS011;36461;52.018;21.036;2022-10-17T11:04:43;16.82;;;14.63;;
35506;SDS011;36461;52.018;21.036;2022-10-17T11:10:20;15.55;;;13.43;;
35506;SDS011;36461;52.018;21.036;2022-10-17T11:13:22;16.95;;;14.15;;
35506;SDS011;36461;52.018;21.036;2022-10-17T11:15:53;20.68;;;14.35;;
35506;SDS011;36461;52.018;21.036;2022-10-17T11:21:25;17.35;;;14.53;;
35506;SDS011;36461;52.018;21.036;2022-10-17T11:24:11;15.98;;;13.90;;
35506;SDS011;36461;52.018;21.036;2022-10-17T11:27:00;15.80;;;13.88;;
35506;SDS011;36461;52.018;21.036;2022-10-17T11:29:33;14.73;;;13.25;;
35506;SDS011;36461;52.018;21.036;2022-10-17T11:32:13;18.30;;;13.08;;
35506;SDS011;36461;52.018;21.036;2022-10-17T11:35:05;17.55;;;13.53;;
35506;SDS011;36461;52.018;21.036;2022-10-17T11:37:44;21.00;;;14.43;;
35506;SDS011;36461;52.018;21.036;2022-10-17T11:40:33;15.98;;;14.00;;
35506;SDS011;36461;52.018;21.036;2022-10-17T11:43:09;16.37;;;13.15;;
35506;SDS011;36461;52.018;21.036;2022-10-17T11:45:35;15.75;;;12.88;;
35506;SDS011;36461;52.018;21.036;2022-10-17T11:48:15;15.43;;;13.38;;
35506;SDS011;36461;52.018;21.036;2022-10-17T11:50:42;14.87;;;13.13;;
35506;SDS011;36461;52.018;21.036;2022-10-17T11:53:21;15.18;;;13.58;;
35506;SDS011;36461;52.018;21.036;2022-10-17T11:55:51;18.98;;;13.68;;
35506;SDS011;36461;52.018;21.036;2022-10-17T12:10:24;14.78;;;13.08;;
35506;SDS011;36461;52.018;21.036;2022-10-17T12:15:57;15.72;;;13.32;;
35506;SDS011;36461;52.018;21.036;2022-10-17T12:18:51;15.98;;;12.95;;
35506;SDS011;36461;52.018;21.036;2022-10-17T12:30:04;16.17;;;13.60;;
35506;SDS011;36461;52.018;21.036;2022-10-17T12:35:45;16.30;;;13.15;;
35506;SDS011;36461;52.018;21.036;2022-10-17T12:46:00;15.88;;;12.80;;
35506;SDS011;36461;52.018;21.036;2022-10-17T12:51:08;18.07;;;13.90;;
35506;SDS011;36461;52.018;21.036;2022-10-17T12:56:20;18.70;;;13.70;;
35506;SDS011;36461;52.018;21.036;2022-10-17T12:59:11;21.27;;;13.72;;
35506;SDS011;36461;52.018;21.036;2022-10-17T13:01:47;14.80;;;13.30;;
35506;SDS011;36461;52.018;21.036;2022-10-17T13:04:18;16.75;;;13.62;;
35506;SDS011;36461;52.018;21.036;2022-10-17T13:06:46;15.03;;;13.43;;
35506;SDS011;36461;52.018;21.036;2022-10-17T13:12:01;16.17;;;13.65;;
35506;SDS011;36461;52.018;21.036;2022-10-17T13:14:31;17.60;;;13.08;;
35506;SDS011;36461;52.018;21.036;2022-10-17T13:17:00;15.25;;;13.13;;
35506;SDS011;36461;52.018;21.036;2022-10-17T13:19:30;17.25;;;12.80;;
35506;SDS011;36461;52.018;21.036;2022-10-17T13:22:16;14.40;;;12.90;;
35506;SDS011;36461;52.018;21.036;2022-10-17T13:24:47;14.18;;;12.68;;
35506;SDS011;36461;52.018;21.036;2022-10-17T13:27:27;16.67;;;13.38;;
35506;SDS011;36461;52.018;21.036;2022-10-17T13:29:58;16.05;;;13.00;;
35506;SDS011;36461;52.018;21.036;2022-10-17T13:32:34;16.65;;;12.78;;
35506;SDS011;36461;52.018;21.036;2022-10-17T13:35:05;17.20;;;13.78;;
35506;SDS011;36461;52.018;21.036;2022-10-17T13:37:35;18.92;;;13.25;;
35506;SDS011;36461;52.018;21.036;2022-10-17T13:40:05;16.67;;;13.32;;
35506;SDS011;36461;52.018;21.036;2022-10-17T13:42:38;16.27;;;13.72;;
35506;SDS011;36461;52.018;21.036;2022-10-17T13:45:21;14.65;;;13.15;;
35506;SDS011;36461;52.018;21.036;2022-10-17T13:48:02;15.15;;;12.25;;
35506;SDS011;36461;52.018;21.036;2022-10-17T13:50:31;18.75;;;13.25;;
35506;SDS011;36461;52.018;21.036;2022-10-17T13:53:05;15.35;;;12.78;;
35506;SDS011;36461;52.018;21.036;2022-10-17T13:55:54;17.95;;;13.90;;
35506;SDS011;36461;52.018;21.036;2022-10-17T13:58:25;15.45;;;13.48;;
35506;SDS011;36461;52.018;21.036;2022-10-17T14:00:59;18.32;;;13.88;;
35506;SDS011;36461;52.018;21.036;2022-10-17T14:03:27;20.32;;;13.45;;
35506;SDS011;36461;52.018;21.036;2022-10-17T14:05:57;15.90;;;13.65;;
35506;SDS011;36461;52.018;21.036;2022-10-17T14:08:36;17.10;;;13.50;;
35506;SDS011;36461;52.018;21.036;2022-10-17T14:11:15;15.38;;;13.38;;
35506;SDS011;36461;52.018;21.036;2022-10-17T14:14:00;14.55;;;12.50;;
35506;SDS011;36461;52.018;21.036;2022-10-17T14:16:39;17.05;;;13.40;;
35506;SDS011;36461;52.018;21.036;2022-10-17T14:19:06;15.30;;;12.90;;
35506;SDS011;36461;52.018;21.036;2022-10-17T14:21:55;14.53;;;12.70;;
35506;SDS011;36461;52.018;21.036;2022-10-17T14:24:44;14.40;;;12.58;;
35506;SDS011;36461;52.018;21.036;2022-10-17T14:30:05;17.35;;;12.43;;
35506;SDS011;36461;52.018;21.036;2022-10-17T14:32:56;15.28;;;13.65;;
35506;SDS011;36461;52.018;21.036;2022-10-17T14:35:26;17.85;;;13.45;;
35506;SDS011;36461;52.018;21.036;2022-10-17T14:37:56;16.17;;;13.45;;
35506;SDS011;36461;52.018;21.036;2022-10-17T14:40:28;15.70;;;14.00;;
35506;SDS011;36461;52.018;21.036;2022-10-17T14:43:02;17.07;;;14.35;;
35506;SDS011;36461;52.018;21.036;2022-10-17T14:45:32;16.80;;;14.15;;
35506;SDS011;36461;52.018;21.036;2022-10-17T14:48:11;15.00;;;13.40;;
35506;SDS011;36461;52.018;21.036;2022-10-17T14:50:39;15.58;;;13.90;;
35506;SDS011;36461;52.018;21.036;2022-10-17T14:55:56;17.90;;;13.98;;
35506;SDS011;36461;52.018;21.036;2022-10-17T14:58:30;16.75;;;13.28;;
35506;SDS011;36461;52.018;21.036;2022-10-17T15:00:56;16.27;;;13.38;;
35506;SDS011;36461;52.018;21.036;2022-10-17T15:03:26;16.05;;;13.95;;
35506;SDS011;36461;52.018;21.036;2022-10-17T15:05:53;16.80;;;14.35;;
35506;SDS011;36461;52.018;21.036;2022-10-17T15:08:21;18.42;;;13.90;;
35506;SDS011;36461;52.018;21.036;2022-10-17T15:10:49;15.60;;;13.90;;
35506;SDS011;36461;52.018;21.036;2022-10-17T15:13:16;18.40;;;14.90;;
35506;SDS011;36461;52.018;21.036;2022-10-17T15:18:10;16.17;;;13.88;;
35506;SDS011;36461;52.018;21.036;2022-10-17T15:20:39;17.20;;;14.73;;
35506;SDS011;36461;52.018;21.036;2022-10-17T15:23:07;17.27;;;14.83;;
35506;SDS011;36461;52.018;21.036;2022-10-17T15:25:34;20.25;;;15.35;;
35506;SDS011;36461;52.018;21.036;2022-10-17T15:28:00;18.10;;;15.28;;
35506;SDS011;36461;52.018;21.036;2022-10-17T15:30:29;21.50;;;15.68;;
35506;SDS011;36461;52.018;21.036;2022-10-17T15:32:59;20.27;;;16.32;;
35506;SDS011;36461;52.018;21.036;2022-10-17T15:35:27;19.30;;;16.60;;
35506;SDS011;36461;52.018;21.036;2022-10-17T15:37:54;21.77;;;16.65;;
35506;SDS011;36461;52.018;21.036;2022-10-17T15:40:22;24.63;;;17.92;;
35506;SDS011;36461;52.018;21.036;2022-10-17T15:42:53;22.05;;;17.07;;
35506;SDS011;36461;52.018;21.036;2022-10-17T15:45:21;22.15;;;16.90;;
35506;SDS011;36461;52.018;21.036;2022-10-17T15:47:50;23.38;;;18.17;;
35506;SDS011;36461;52.018;21.036;2022-10-17T15:50:21;22.85;;;18.52;;
35506;SDS011;36461;52.018;21.036;2022-10-17T15:55:18;21.68;;;16.55;;
35506;SDS011;36461;52.018;21.036;2022-10-17T15:57:45;23.83;;;18.10;;
35506;SDS011;36461;52.018;21.036;2022-10-17T16:00:15;20.77;;;18.50;;
35506;SDS011;36461;52.018;21.036;2022-10-17T16:02:45;23.80;;;18.55;;
35506;SDS011;36461;52.018;21.036;2022-10-17T16:05:15;25.15;;;19.35;;
35506;SDS011;36461;52.018;21.036;2022-10-17T16:07:50;24.80;;;19.17;;
35506;SDS011;36461;52.018;21.036;2022-10-17T16:10:19;25.97;;;19.25;;
35506;SDS011;36461;52.018;21.036;2022-10-17T16:12:47;28.40;;;21.15;;
35506;SDS011;36461;52.018;21.036;2022-10-17T16:15:16;28.27;;;22.70;;
35506;SDS011;36461;52.018;21.036;2022-10-17T16:17:50;25.90;;;20.90;;
35506;SDS011;36461;52.018;21.036;2022-10-17T16:20:18;25.97;;;21.25;;
35506;SDS011;36461;52.018;21.036;2022-10-17T16:22:49;24.65;;;19.90;;
35506;SDS011;36461;52.018;21.036;2022-10-17T16:25:20;25.43;;;19.73;;
35506;SDS011;36461;52.018;21.036;2022-10-17T16:27:51;24.80;;;20.02;;
35506;SDS011;36461;52.018;21.036;2022-10-17T16:30:22;21.60;;;18.15;;
35506;SDS011;36461;52.018;21.036;2022-10-17T16:32:51;21.60;;;17.73;;
35506;SDS011;36461;52.018;21.036;2022-10-17T16:35:20;23.05;;;17.57;;
35506;SDS011;36461;52.018;21.036;2022-10-17T16:37:51;21.77;;;17.37;;
35506;SDS011;36461;52.018;21.036;2022-10-17T16:40:18;24.52;;;17.65;;
35506;SDS011;36461;52.018;21.036;2022-10-17T16:42:45;25.72;;;16.48;;
35506;SDS011;36461;52.018;21.036;2022-10-17T16:45:19;21.97;;;17.55;;
35506;SDS011;36461;52.018;21.036;2022-10-17T16:47:48;24.52;;;16.67;;
35506;SDS011;36461;52.018;21.036;2022-10-17T16:50:15;24.57;;;15.95;;
35506;SDS011;36461;52.018;21.036;2022-10-17T16:52:42;27.65;;;18.20;;
35506;SDS011;36461;52.018;21.036;2022-10-17T16:57:35;23.32;;;16.60;;
35506;SDS011;36461;52.018;21.036;2022-10-17T17:00:03;23.85;;;18.62;;
35506;SDS011;36461;52.018;21.036;2022-10-17T17:02:31;27.95;;;21.42;;
35506;SDS011;36461;52.018;21.036;2022-10-17T17:07:26;34.80;;;27.00;;
35506;SDS011;36461;52.018;21.036;2022-10-17T17:09:54;36.25;;;27.48;;
35506;SDS011;36461;52.018;21.036;2022-10-17T17:12:21;32.30;;;25.00;;
35506;SDS011;36461;52.018;21.036;2022-10-17T17:14:48;32.30;;;25.72;;
35506;SDS011;36461;52.018;21.036;2022-10-17T17:17:14;36.55;;;27.10;;
35506;SDS011;36461;52.018;21.036;2022-10-17T17:19:43;31.50;;;26.30;;
35506;SDS011;36461;52.018;21.036;2022-10-17T17:22:10;30.70;;;24.45;;
35506;SDS011;36461;52.018;21.036;2022-10-17T17:24:37;29.07;;;23.92;;